Time;durP1;ratioP1;P1;durP2;ratioP2;P2;SDS_P1;SDS_P2;PMS_P1;PMS_P2;Temp;Humidity;BMP_temperature;BMP_pressure;BME280_temperature;BME280_humidity;BME280_pressure;Samples;Min_cycle;Max_cycle;Signal;HPM_P1;HPM_P2
2023/04/18 00:01:33;;;;;;;15.82;13.82;;;5.30;99.90;;;;;;4878355;29;20453;-92
2023/04/18 00:04:01;;;;;;;17.17;14.52;;;5.50;99.90;;;;;;4879369;29;20846;-93
2023/04/18 00:06:28;;;;;;;17.15;15.27;;;5.50;99.90;;;;;;4878666;29;20469;-91
2023/04/18 00:08:55;;;;;;;19.38;15.90;;;5.20;99.90;;;;;;4878984;29;20504;-94
2023/04/18 00:11:20;;;;;;;18.25;15.60;;;5.30;99.90;;;;;;4879469;29;20413;-91
2023/04/18 00:13:47;;;;;;;18.13;16.27;;;5.50;99.90;;;;;;4878564;29;21053;-92
2023/04/18 00:16:13;;;;;;;19.97;16.77;;;5.40;99.90;;;;;;4878458;29;20481;-91
2023/04/18 00:18:39;;;;;;;21.05;17.73;;;5.50;99.90;;;;;;4877743;29;20449;-93
2023/04/18 00:21:05;;;;;;;22.73;17.92;;;5.40;99.90;;;;;;4878772;29;20475;-92
2023/04/18 00:23:33;;;;;;;21.37;18.47;;;5.50;99.90;;;;;;4877473;29;20449;-93
2023/04/18 00:25:59;;;;;;;20.60;18.38;;;5.60;99.90;;;;;;4879260;29;20903;-92
2023/04/18 00:28:24;;;;;;;21.98;18.13;;;5.60;99.90;;;;;;4877630;29;21329;-93
2023/04/18 00:30:50;;;;;;;21.90;18.17;;;5.80;99.90;;;;;;4878300;29;20424;-92
2023/04/18 00:33:16;;;;;;;20.30;17.30;;;5.70;99.90;;;;;;4878037;29;21074;-92
2023/04/18 00:35:41;;;;;;;18.98;16.52;;;5.80;99.90;;;;;;4893278;29;20506;-92
2023/04/18 00:38:07;;;;;;;19.77;16.42;;;6.10;99.90;;;;;;4879091;29;20409;-93
2023/04/18 00:40:33;;;;;;;19.13;16.40;;;5.80;99.90;;;;;;4877336;29;20806;-92
2023/04/18 00:42:59;;;;;;;18.75;16.70;;;5.80;99.90;;;;;;4895076;29;20432;-94
2023/04/18 00:45:24;;;;;;;19.42;16.75;;;6.40;99.90;;;;;;4892311;29;20415;-92
2023/04/18 00:47:50;;;;;;;19.43;16.90;;;5.90;99.90;;;;;;4878934;29;20441;-92
2023/04/18 00:50:17;;;;;;;18.35;16.08;;;5.80;99.90;;;;;;4877296;29;20421;-93
2023/04/18 00:52:46;;;;;;;17.27;15.45;;;5.90;99.90;;;;;;4878263;29;20525;-94
2023/04/18 00:55:15;;;;;;;19.15;15.95;;;6.10;99.90;;;;;;4878575;29;20429;-93
2023/04/18 00:57:45;;;;;;;17.70;15.68;;;5.90;99.90;;;;;;4880101;29;20445;-94
2023/04/18 01:00:11;;;;;;;18.23;15.35;;;5.90;99.90;;;;;;4879211;29;20480;-93
2023/04/18 01:02:38;;;;;;;16.13;14.35;;;5.80;99.90;;;;;;4876185;29;20409;-91
2023/04/18 01:05:05;;;;;;;17.42;14.52;;;5.80;99.90;;;;;;4878601;29;20440;-91
2023/04/18 01:07:36;;;;;;;18.73;15.03;;;5.80;99.90;;;;;;4877602;29;20417;-92
2023/04/18 01:10:03;;;;;;;15.30;13.68;;;5.80;99.90;;;;;;4879350;29;20503;-93
2023/04/18 01:12:29;;;;;;;15.65;13.65;;;5.70;99.90;;;;;;4879605;29;20413;-93
2023/04/18 01:14:55;;;;;;;15.45;13.82;;;5.90;99.90;;;;;;4882085;29;20433;-94
2023/04/18 01:17:22;;;;;;;14.57;12.93;;;6.00;99.90;;;;;;4877919;29;20433;-92
2023/04/18 01:19:47;;;;;;;14.85;12.98;;;5.90;99.90;;;;;;4879198;29;20437;-92
2023/04/18 01:22:14;;;;;;;13.87;12.47;;;5.90;99.90;;;;;;4877613;29;21090;-94
2023/04/18 01:24:41;;;;;;;13.20;11.75;;;5.90;99.90;;;;;;4878552;29;20456;-93
2023/04/18 01:27:09;;;;;;;13.30;11.90;;;5.80;99.90;;;;;;4879049;29;20428;-92
2023/04/18 01:29:35;;;;;;;13.55;12.07;;;5.80;99.90;;;;;;4877065;29;20539;-93
2023/04/18 01:32:01;;;;;;;13.30;11.90;;;6.40;99.90;;;;;;4877840;29;20456;-93
2023/04/18 01:34:27;;;;;;;13.98;11.85;;;5.90;99.90;;;;;;4876943;29;20427;-92
2023/04/18 01:36:52;;;;;;;13.23;11.77;;;5.80;99.90;;;;;;4877750;29;20413;-92
2023/04/18 01:39:18;;;;;;;12.70;11.40;;;5.80;99.90;;;;;;4877693;29;20442;-92
2023/04/18 01:41:44;;;;;;;12.80;11.40;;;5.80;99.90;;;;;;4878206;29;20500;-93
2023/04/18 01:44:10;;;;;;;13.23;11.77;;;5.70;99.90;;;;;;4894177;29;20504;-92
2023/04/18 01:46:35;;;;;;;12.75;11.38;;;5.70;99.90;;;;;;4877019;29;20417;-92
2023/04/18 01:49:01;;;;;;;12.75;11.45;;;5.70;99.90;;;;;;4877877;29;20440;-93
2023/04/18 01:51:27;;;;;;;13.00;11.18;;;5.70;99.90;;;;;;4876753;29;20442;-93
2023/04/18 01:53:53;;;;;;;12.57;11.27;;;5.70;99.90;;;;;;4878567;29;20449;-93
2023/04/18 01:56:19;;;;;;;13.00;11.53;;;5.70;99.90;;;;;;4878335;29;20426;-93
2023/04/18 01:58:45;;;;;;;14.20;12.05;;;5.80;99.90;;;;;;4877264;29;20424;-93
2023/04/18 02:01:16;;;;;;;12.85;11.05;;;5.80;99.90;;;;;;4878584;29;20775;-94
2023/04/18 02:03:42;;;;;;;12.43;11.13;;;5.70;99.90;;;;;;4893957;29;21034;-92
2023/04/18 02:06:07;;;;;;;12.52;11.23;;;5.60;99.90;;;;;;4879876;29;20417;-94
2023/04/18 02:08:34;;;;;;;13.10;11.77;;;5.60;99.90;;;;;;4885731;29;20425;-94
2023/04/18 02:11:01;;;;;;;13.25;11.43;;;5.70;99.90;;;;;;4881306;29;20805;-94
2023/04/18 02:13:27;;;;;;;12.52;10.70;;;5.70;99.90;;;;;;4896913;29;20417;-93
2023/04/18 02:16:10;;;;;;;13.18;11.77;;;5.80;99.90;;;;;;4900581;29;20445;-91
2023/04/18 02:18:35;;;;;;;12.57;11.10;;;5.70;99.90;;;;;;4895346;29;20432;-95
2023/04/18 02:21:01;;;;;;;14.85;10.90;;;6.10;99.90;;;;;;4881876;29;20413;-94
2023/04/18 02:23:27;;;;;;;12.50;10.43;;;5.70;99.90;;;;;;4880698;29;20492;-94
2023/04/18 02:25:53;;;;;;;11.50;10.30;;;5.60;99.90;;;;;;4881374;29;20421;-93
2023/04/18 02:28:19;;;;;;;11.77;10.10;;;5.50;99.90;;;;;;4880831;29;20770;-94
2023/04/18 02:30:44;;;;;;;14.00;10.97;;;5.50;99.90;;;;;;4880594;29;20421;-92
2023/04/18 02:33:10;;;;;;;11.60;9.65;;;5.70;99.90;;;;;;4879237;29;20800;-94
2023/04/18 02:35:39;;;;;;;11.23;9.55;;;5.70;99.90;;;;;;4879988;29;20424;-92
2023/04/18 02:38:05;;;;;;;10.07;8.95;;;5.60;99.90;;;;;;4878830;29;20441;-92
2023/04/18 02:40:30;;;;;;;10.15;8.68;;;5.50;99.90;;;;;;4879721;29;20488;-92
2023/04/18 02:42:57;;;;;;;10.67;9.07;;;5.50;99.90;;;;;;4880139;29;20417;-93
2023/04/18 02:45:22;;;;;;;9.85;8.57;;;5.80;99.90;;;;;;4882424;29;20420;-94
2023/04/18 02:47:53;;;;;;;8.40;7.50;;;5.70;99.90;;;;;;4883290;29;20421;-95
2023/04/18 02:50:23;;;;;;;9.77;8.23;;;5.40;99.90;;;;;;4885318;29;20461;-94
2023/04/18 02:53:06;;;;;;;8.35;7.30;;;5.60;99.90;;;;;;4886844;29;20429;-95
2023/04/18 02:55:36;;;;;;;8.55;7.57;;;5.50;99.90;;;;;;4882504;29;20435;-95
2023/04/18 02:58:05;;;;;;;8.70;7.70;;;5.60;99.90;;;;;;4883815;29;20439;-94
2023/04/18 03:00:30;;;;;;;9.15;7.57;;;5.80;99.90;;;;;;4877715;29;20439;-94
2023/04/18 03:02:58;;;;;;;8.63;7.60;;;5.70;99.90;;;;;;4864676;29;20833;-93
2023/04/18 03:05:30;;;;;;;9.05;7.38;;;5.80;99.90;;;;;;4861607;29;20451;-94
2023/04/18 03:07:56;;;;;;;9.00;7.80;;;5.60;99.90;;;;;;4863300;29;20842;-93
2023/04/18 03:10:22;;;;;;;8.98;7.85;;;5.70;99.90;;;;;;4862622;29;20542;-93
2023/04/18 03:12:47;;;;;;;9.53;8.00;;;5.80;99.90;;;;;;4866128;29;20431;-95
2023/04/18 03:15:13;;;;;;;8.67;7.23;;;5.70;99.90;;;;;;4862367;29;20450;-95
2023/04/18 03:17:42;;;;;;;8.55;7.65;;;5.80;99.90;;;;;;4862389;29;20427;-93
2023/04/18 03:20:09;;;;;;;8.63;7.72;;;6.00;99.90;;;;;;4861506;29;20474;-92
2023/04/18 03:22:34;;;;;;;8.93;7.70;;;5.90;99.90;;;;;;4859766;29;20458;-92
2023/04/18 03:25:00;;;;;;;9.82;7.78;;;6.00;99.90;;;;;;4860855;29;20463;-91
2023/04/18 03:27:26;;;;;;;8.85;7.95;;;6.10;99.90;;;;;;4874958;29;20415;-94
2023/04/18 03:29:52;;;;;;;9.30;7.50;;;6.20;99.90;;;;;;4861263;29;20427;-92
2023/04/18 03:32:17;;;;;;;8.77;7.50;;;6.10;99.90;;;;;;4858695;29;20478;-95
2023/04/18 03:34:43;;;;;;;8.52;7.63;;;6.30;99.90;;;;;;4860644;29;20411;-92
2023/04/18 03:37:09;;;;;;;9.53;7.60;;;6.40;99.90;;;;;;4861538;29;20460;-94
2023/04/18 03:39:34;;;;;;;10.27;7.77;;;6.20;99.90;;;;;;4873341;29;20921;-94
2023/04/18 03:42:01;;;;;;;9.63;8.10;;;6.30;99.90;;;;;;4849932;29;20486;-94
2023/04/18 03:44:30;;;;;;;8.38;7.47;;;6.50;99.90;;;;;;4858727;29;20419;-92
2023/04/18 03:46:56;;;;;;;8.50;7.60;;;6.40;99.90;;;;;;4851275;29;20428;-94
2023/04/18 03:49:21;;;;;;;10.82;7.95;;;6.60;99.90;;;;;;4839469;29;20580;-93
2023/04/18 03:51:47;;;;;;;9.13;7.90;;;6.50;99.90;;;;;;4842393;29;20499;-93
2023/04/18 03:54:14;;;;;;;10.57;7.73;;;6.60;99.90;;;;;;4840909;29;20509;-94
2023/04/18 03:56:40;;;;;;;9.20;7.88;;;6.50;99.90;;;;;;4860393;29;20428;-93
2023/04/18 03:59:06;;;;;;;9.88;8.25;;;6.60;99.90;;;;;;4848155;29;20515;-93
2023/04/18 04:01:32;;;;;;;9.13;7.45;;;7.30;99.90;;;;;;4877604;29;20510;-95
2023/04/18 04:03:57;;;;;;;8.70;7.78;;;6.70;99.90;;;;;;4859977;29;20425;-93
2023/04/18 04:06:23;;;;;;;9.27;8.15;;;6.90;99.90;;;;;;4859749;29;20471;-93
2023/04/18 04:08:49;;;;;;;8.93;7.47;;;6.80;99.90;;;;;;4863042;29;20423;-94
2023/04/18 04:11:17;;;;;;;9.35;7.85;;;6.80;99.90;;;;;;4860583;29;20843;-94
2023/04/18 04:13:43;;;;;;;8.80;7.70;;;6.80;99.90;;;;;;4860940;29;20520;-93
2023/04/18 04:16:09;;;;;;;8.80;7.50;;;7.00;99.90;;;;;;4858797;29;20430;-93
2023/04/18 04:18:34;;;;;;;8.60;7.70;;;7.00;99.90;;;;;;4862153;29;20411;-93
2023/04/18 04:21:02;;;;;;;8.20;7.37;;;6.90;99.90;;;;;;4859133;29;20447;-94
2023/04/18 04:23:28;;;;;;;9.48;8.15;;;6.80;99.90;;;;;;4861395;29;20466;-94
2023/04/18 04:25:54;;;;;;;8.93;8.00;;;6.90;99.90;;;;;;4859035;29;20526;-91
2023/04/18 04:28:22;;;;;;;9.13;8.18;;;6.90;99.90;;;;;;4861057;29;20446;-95
2023/04/18 04:30:49;;;;;;;10.98;8.40;;;6.80;99.90;;;;;;4887163;29;20414;-94
2023/04/18 04:33:27;;;;;;;9.77;8.13;;;6.80;99.90;;;;;;4881430;29;20410;-93
2023/04/18 04:35:53;;;;;;;9.15;7.95;;;6.90;99.90;;;;;;4879795;29;20508;-91
2023/04/18 04:38:29;;;;;;;9.80;8.80;;;7.10;99.90;;;;;;4877889;29;20413;-94
2023/04/18 04:40:56;;;;;;;9.43;8.25;;;6.90;99.90;;;;;;4878657;29;20958;-94
2023/04/18 04:43:31;;;;;;;10.52;8.90;;;6.90;99.90;;;;;;4879751;29;20420;-94
2023/04/18 04:45:57;;;;;;;9.88;8.73;;;7.00;99.90;;;;;;4876731;29;20534;-95
2023/04/18 04:48:23;;;;;;;9.63;8.32;;;7.20;99.90;;;;;;4863468;29;20451;-94
2023/04/18 04:51:00;;;;;;;9.63;8.48;;;7.00;99.90;;;;;;4861056;29;20429;-94
2023/04/18 04:53:27;;;;;;;9.40;7.90;;;7.10;99.90;;;;;;4862013;29;20438;-91
2023/04/18 04:58:48;;;;;;;9.88;8.52;;;7.10;99.90;;;;;;4872645;29;20438;-95
2023/04/18 05:01:49;;;;;;;10.53;8.60;;;7.10;99.90;;;;;;4864955;29;20433;-95
2023/04/18 05:04:15;;;;;;;9.88;8.85;;;7.20;99.90;;;;;;4847502;29;20438;-93
2023/04/18 05:06:44;;;;;;;10.10;8.68;;;7.10;99.90;;;;;;4861300;29;20411;-95
2023/04/18 05:09:15;;;;;;;10.48;8.38;;;7.30;99.90;;;;;;4862063;29;20423;-95
2023/04/18 05:11:41;;;;;;;10.07;8.93;;;7.30;99.90;;;;;;4861222;29;20430;-93
2023/04/18 05:14:11;;;;;;;10.93;8.40;;;7.50;99.90;;;;;;4866010;29;20433;-94
2023/04/18 05:16:45;;;;;;;11.73;8.90;;;7.30;99.90;;;;;;4879438;29;20443;-94
2023/04/18 05:19:20;;;;;;;10.23;8.60;;;7.30;99.90;;;;;;4888278;29;20445;-93
2023/04/18 05:21:46;;;;;;;10.63;9.45;;;7.50;99.90;;;;;;4891095;29;20421;-94
2023/04/18 05:24:21;;;;;;;10.48;9.45;;;7.50;99.90;;;;;;4888807;29;20823;-95
2023/04/18 05:26:47;;;;;;;11.80;9.23;;;7.60;99.90;;;;;;4867275;29;20413;-91
2023/04/18 05:29:21;;;;;;;9.88;8.88;;;7.80;99.90;;;;;;4885890;29;20428;-92
2023/04/18 05:31:47;;;;;;;10.68;9.52;;;7.50;99.90;;;;;;4880042;29;20421;-95
2023/04/18 05:34:13;;;;;;;10.90;8.90;;;7.70;99.90;;;;;;4888755;29;20432;-93
2023/04/18 05:36:48;;;;;;;11.35;10.05;;;7.60;99.90;;;;;;4903941;29;20414;-94
2023/04/18 05:39:13;;;;;;;10.82;9.73;;;7.70;99.90;;;;;;4888422;29;20533;-92
2023/04/18 05:41:57;;;;;;;11.25;9.82;;;7.60;99.90;;;;;;4892354;29;20441;-94
2023/04/18 05:44:23;;;;;;;14.18;10.07;;;8.00;99.90;;;;;;4881707;29;20417;-92
2023/04/18 05:46:51;;;;;;;11.32;10.05;;;8.10;99.90;;;;;;4885283;29;20425;-95
2023/04/18 05:49:19;;;;;;;11.10;9.80;;;7.90;99.90;;;;;;4885105;29;20413;-92
2023/04/18 05:51:55;;;;;;;10.88;9.70;;;8.00;99.90;;;;;;4889363;29;20418;-94
2023/04/18 05:54:48;;;;;;;10.98;9.80;;;8.40;99.90;;;;;;4902608;29;20484;-94
2023/04/18 05:57:37;;;;;;;11.65;10.25;;;8.00;99.90;;;;;;4884931;29;20424;-92
2023/04/18 06:00:10;;;;;;;11.05;10.02;;;8.30;99.90;;;;;;4873233;29;20441;-94
2023/04/18 06:02:43;;;;;;;11.68;10.48;;;8.20;99.90;;;;;;4880183;29;20964;-93
2023/04/18 06:05:17;;;;;;;13.55;10.63;;;8.20;99.90;;;;;;4899561;29;20426;-93
2023/04/18 06:07:43;;;;;;;12.23;10.43;;;8.70;99.90;;;;;;4884370;29;20454;-93
2023/04/18 06:10:12;;;;;;;12.20;10.20;;;8.40;99.90;;;;;;4884456;29;20425;-91
2023/04/18 06:12:38;;;;;;;12.68;11.00;;;9.00;99.90;;;;;;4872621;29;20544;-93
2023/04/18 06:15:07;;;;;;;11.65;10.32;;;8.70;99.90;;;;;;4882380;29;20411;-93
2023/04/18 06:17:39;;;;;;;11.57;10.37;;;8.50;99.90;;;;;;4883759;29;20467;-94
2023/04/18 06:20:17;;;;;;;12.13;10.57;;;9.00;99.90;;;;;;4888586;29;20435;-95
2023/04/18 06:23:02;;;;;;;12.07;10.48;;;8.70;99.90;;;;;;4886036;29;20552;-95
2023/04/18 06:25:27;;;;;;;12.13;10.88;;;9.00;99.90;;;;;;4889489;29;20508;-95
2023/04/18 06:28:03;;;;;;;11.52;9.82;;;9.10;99.90;;;;;;4890773;29;20417;-94
2023/04/18 06:30:28;;;;;;;12.45;10.73;;;9.20;99.90;;;;;;4890784;29;20778;-91
2023/04/18 06:33:00;;;;;;;10.90;9.80;;;9.40;99.90;;;;;;4889632;29;20417;-95
2023/04/18 06:35:49;;;;;;;12.65;10.35;;;9.40;99.90;;;;;;4897738;29;20408;-95
2023/04/18 06:38:24;;;;;;;14.07;9.63;;;9.40;99.90;;;;;;4893047;29;20953;-93
2023/04/18 06:41:14;;;;;;;10.77;9.68;;;9.30;99.90;;;;;;4897176;29;20695;-95
2023/04/18 06:43:41;;;;;;;11.25;9.65;;;9.20;99.90;;;;;;4917375;29;20423;-92
2023/04/18 06:46:15;;;;;;;11.57;9.50;;;8.80;99.90;;;;;;4905565;29;20825;-94
2023/04/18 06:48:41;;;;;;;10.80;9.70;;;9.30;99.90;;;;;;4903186;29;20428;-92
2023/04/18 06:51:10;;;;;;;11.90;9.35;;;9.50;99.90;;;;;;4921546;29;20423;-94
2023/04/18 06:53:38;;;;;;;11.80;9.00;;;9.70;99.90;;;;;;4903809;29;20830;-94
2023/04/18 06:56:04;;;;;;;9.55;8.50;;;9.60;99.90;;;;;;4907685;29;20427;-93
2023/04/18 06:58:51;;;;;;;11.27;8.65;;;9.60;98.20;;;;;;4903879;29;20422;-95
2023/04/18 07:01:18;;;;;;;10.27;8.93;;;9.90;99.10;;;;;;4906876;29;20419;-94
2023/04/18 07:04:01;;;;;;;10.63;8.85;;;9.80;99.30;;;;;;4904002;29;20416;-94
2023/04/18 07:06:27;;;;;;;8.98;8.05;;;9.80;97.70;;;;;;4906266;29;20407;-93
2023/04/18 07:09:00;;;;;;;10.10;9.10;;;9.80;96.40;;;;;;4902236;29;20781;-94
2023/04/18 07:11:26;;;;;;;9.25;8.35;;;10.00;97.90;;;;;;4900943;29;20420;-95
2023/04/18 07:14:21;;;;;;;9.47;7.93;;;10.00;99.20;;;;;;4902937;29;20421;-93
2023/04/18 07:16:57;;;;;;;9.93;8.00;;;10.00;94.80;;;;;;4881780;29;20415;-95
2023/04/18 07:19:26;;;;;;;10.70;8.32;;;10.00;96.10;;;;;;4889115;29;20447;-94
2023/04/18 07:22:05;;;;;;;9.35;8.27;;;10.20;94.80;;;;;;4906500;29;20797;-93
2023/04/18 07:24:34;;;;;;;8.70;7.80;;;10.10;91.40;;;;;;4919730;29;20423;-94
2023/04/18 07:27:58;;;;;;;11.35;8.18;;;9.90;95.00;;;;;;4919888;29;20419;-95
2023/04/18 07:30:50;;;;;;;11.43;8.27;;;10.30;96.00;;;;;;4832602;29;20514;-93
2023/04/18 07:33:19;;;;;;;9.32;7.90;;;10.40;94.90;;;;;;4904018;29;20514;-94
2023/04/18 07:35:49;;;;;;;10.27;8.88;;;10.40;90.50;;;;;;4904896;29;20771;-93
2023/04/18 07:38:24;;;;;;;9.98;8.80;;;10.50;94.70;;;;;;4902540;29;20419;-94
2023/04/18 07:41:05;;;;;;;11.65;8.55;;;10.70;94.40;;;;;;4904825;29;20518;-94
2023/04/18 07:43:31;;;;;;;10.15;8.98;;;10.90;93.10;;;;;;4901817;29;20434;-94
2023/04/18 07:45:56;;;;;;;11.10;8.85;;;11.80;92.60;;;;;;4902671;29;20407;-92
2023/04/18 07:48:25;;;;;;;10.55;8.70;;;10.90;88.80;;;;;;4916390;29;20419;-94
2023/04/18 07:50:54;;;;;;;9.63;8.63;;;10.80;85.40;;;;;;4902258;29;20502;-93
2023/04/18 07:53:23;;;;;;;9.80;8.75;;;11.00;84.50;;;;;;4900493;29;20451;-95
2023/04/18 07:55:53;;;;;;;10.40;8.82;;;10.80;85.70;;;;;;4901385;29;20408;-92
2023/04/18 07:58:19;;;;;;;10.75;9.07;;;11.00;88.00;;;;;;4898824;29;20506;-90
2023/04/18 08:00:44;;;;;;;12.48;9.02;;;11.30;90.10;;;;;;4900220;29;20439;-93
2023/04/18 08:03:11;;;;;;;11.00;8.90;;;11.50;88.40;;;;;;4900275;29;20431;-93
2023/04/18 08:05:41;;;;;;;9.65;8.27;;;11.30;87.30;;;;;;4901148;29;20430;-93
2023/04/18 08:08:16;;;;;;;9.90;8.90;;;11.30;81.10;;;;;;4899041;29;20427;-93
2023/04/18 08:10:41;;;;;;;10.50;8.00;;;11.40;86.20;;;;;;4901707;29;20408;-93
2023/04/18 08:13:07;;;;;;;9.73;8.52;;;11.70;80.20;;;;;;4899696;29;20976;-93
2023/04/18 08:15:33;;;;;;;11.20;8.30;;;11.60;80.20;;;;;;4901569;29;20420;-93
2023/04/18 08:17:59;;;;;;;10.32;8.38;;;12.40;78.80;;;;;;4900771;29;20415;-92
2023/04/18 08:20:26;;;;;;;8.77;7.85;;;11.70;75.20;;;;;;4917527;29;20436;-93
2023/04/18 08:22:55;;;;;;;11.60;8.18;;;11.60;76.20;;;;;;4902184;29;20423;-92
2023/04/18 08:25:20;;;;;;;9.85;8.15;;;11.70;76.80;;;;;;4901542;29;20807;-94
2023/04/18 08:27:46;;;;;;;10.40;8.73;;;11.80;79.90;;;;;;4899282;29;20420;-94
2023/04/18 08:30:12;;;;;;;12.37;11.07;;;12.10;78.90;;;;;;4899898;29;20468;-91
2023/04/18 08:32:38;;;;;;;19.63;17.58;;;11.80;79.20;;;;;;4900769;29;20821;-94
2023/04/18 08:35:04;;;;;;;11.90;10.37;;;12.40;75.10;;;;;;4900766;29;20404;-92
2023/04/18 08:37:34;;;;;;;11.88;10.43;;;12.10;76.30;;;;;;4897453;29;20806;-93
2023/04/18 08:40:00;;;;;;;9.40;8.18;;;12.30;79.50;;;;;;4898625;29;20454;-91
2023/04/18 08:42:26;;;;;;;9.52;7.60;;;12.50;79.90;;;;;;4898034;29;20450;-93
2023/04/18 08:44:52;;;;;;;8.98;8.07;;;12.20;75.80;;;;;;4900288;29;20420;-93
2023/04/18 08:47:20;;;;;;;9.77;8.15;;;12.50;69.00;;;;;;4899527;29;20415;-92
2023/04/18 08:49:52;;;;;;;9.83;7.80;;;13.00;70.20;;;;;;4902637;29;21182;-94
2023/04/18 08:52:34;;;;;;;8.65;7.43;;;12.60;68.90;;;;;;4902339;29;20414;-94
2023/04/18 08:55:32;;;;;;;8.77;6.97;;;12.60;67.60;;;;;;4919126;29;20441;-93
2023/04/18 08:57:58;;;;;;;9.05;7.50;;;12.60;67.80;;;;;;4920655;29;20498;-93
2023/04/18 09:00:28;;;;;;;9.75;8.32;;;12.80;66.10;;;;;;4901886;29;20444;-93
2023/04/18 09:03:07;;;;;;;8.65;7.55;;;12.80;67.40;;;;;;4900437;29;20426;-93
2023/04/18 09:05:32;;;;;;;10.07;7.78;;;12.70;68.00;;;;;;4901199;29;20487;-93
2023/04/18 09:08:25;;;;;;;9.37;7.40;;;13.00;72.40;;;;;;4902154;29;20455;-94
2023/04/18 09:10:57;;;;;;;10.30;7.70;;;12.90;65.60;;;;;;4896014;29;20422;-93
2023/04/18 09:13:46;;;;;;;9.88;7.95;;;13.10;65.10;;;;;;4904345;29;20439;-94
2023/04/18 09:16:47;;;;;;;8.73;7.57;;;12.90;66.90;;;;;;4907283;29;20422;-93
2023/04/18 09:19:22;;;;;;;8.82;7.93;;;13.20;65.70;;;;;;4864670;29;20435;-93
2023/04/18 09:22:03;;;;;;;8.05;7.25;;;13.40;66.10;;;;;;4906801;29;20420;-93
2023/04/18 09:25:18;;;;;;;;;;;;;;;;;;;;;
2023/04/18 09:27:59;;;;;;;9.38;7.53;;;13.40;66.30;;;;;;4871061;29;20458;-94
2023/04/18 09:30:32;;;;;;;9.27;7.32;;;13.30;63.80;;;;;;4871981;29;20419;-92
2023/04/18 09:33:15;;;;;;;10.02;7.32;;;13.60;61.70;;;;;;4870510;29;20434;-94
2023/04/18 09:36:15;;;;;;;9.57;7.60;;;13.80;62.20;;;;;;4868096;29;20431;-94
2023/04/18 09:39:00;;;;;;;8.38;6.20;;;13.80;63.80;;;;;;4870904;29;20981;-92
2023/04/18 09:42:28;;;;;;;8.55;6.45;;;13.90;59.70;;;;;;4883109;29;20419;-94
2023/04/18 09:45:12;;;;;;;7.78;6.50;;;13.90;59.80;;;;;;4796831;29;20471;-93
2023/04/18 09:48:18;;;;;;;6.85;5.95;;;14.00;58.60;;;;;;4885599;29;20837;-94
2023/04/18 09:50:57;;;;;;;8.38;6.28;;;14.10;58.00;;;;;;4866821;29;20422;-94
2023/04/18 09:53:39;;;;;;;7.03;6.33;;;14.40;58.40;;;;;;4871246;29;20455;-94
2023/04/18 09:56:33;;;;;;;8.25;6.47;;;14.60;55.90;;;;;;4865574;29;20433;-94
2023/04/18 09:59:51;;;;;;;8.40;5.40;;;14.40;55.40;;;;;;4873024;29;20451;-94
2023/04/18 10:02:48;;;;;;;;;;;;;;;;;;;;;
2023/04/18 10:05:32;;;;;;;7.95;6.45;;;14.60;56.60;;;;;;4882607;29;20430;-93
2023/04/18 10:08:01;;;;;;;7.00;4.78;;;14.90;56.30;;;;;;4867921;29;20419;-95
2023/04/18 10:10:37;;;;;;;6.25;5.45;;;15.10;56.60;;;;;;4868726;29;20422;-95
2023/04/18 10:13:17;;;;;;;5.82;5.13;;;15.40;55.50;;;;;;4871753;29;20486;-95
2023/04/18 10:15:51;;;;;;;5.90;5.38;;;15.80;54.90;;;;;;4870024;29;20429;-95
2023/04/18 10:18:48;;;;;;;6.28;5.15;;;16.10;52.90;;;;;;4868851;29;20483;-93
2023/04/18 10:21:50;;;;;;;5.35;4.85;;;16.60;52.70;;;;;;4850089;29;20438;-95
2023/04/18 10:25:03;;;;;;;;;;;;;;;;;;;;;
2023/04/18 10:27:57;;;;;;;4.70;4.18;;;17.30;49.90;;;;;;4889025;29;20470;-94
2023/04/18 10:31:02;;;;;;;4.70;4.30;;;17.60;49.80;;;;;;4876927;29;20448;-94
2023/04/18 10:33:31;;;;;;;6.80;5.47;;;17.90;48.90;;;;;;4800041;29;20443;-96
2023/04/18 10:39:48;;;;;;;5.97;5.38;;;18.30;48.80;;;;;;4863814;29;20414;-93
2023/04/18 10:45:38;;;;;;;4.68;4.18;;;18.90;47.40;;;;;;4855228;29;20478;-94
2023/04/18 10:48:34;;;;;;;4.97;4.40;;;18.90;47.50;;;;;;4834133;29;20433;-92
2023/04/18 10:51:38;;;;;;;4.40;4.00;;;19.20;48.80;;;;;;4866060;29;20438;-93
2023/04/18 10:54:48;;;;;;;4.78;4.00;;;19.40;45.10;;;;;;4887283;29;20445;-95
2023/04/18 10:57:25;;;;;;;5.13;4.00;;;19.50;47.20;;;;;;4874501;29;20438;-95
2023/04/18 11:00:00;;;;;;;5.82;4.03;;;19.90;45.60;;;;;;4875277;29;20439;-93
2023/04/18 11:02:59;;;;;;;4.80;3.73;;;19.70;43.60;;;;;;4876006;29;20412;-94
2023/04/18 11:05:39;;;;;;;4.68;3.78;;;19.70;44.70;;;;;;4818580;29;20463;-93
2023/04/18 11:08:23;;;;;;;4.65;3.50;;;19.80;44.80;;;;;;4821677;29;21280;-94
2023/04/18 11:11:29;;;;;;;4.40;4.00;;;19.90;45.20;;;;;;4812760;29;20437;-94
2023/04/18 11:14:25;;;;;;;4.43;4.03;;;19.90;44.10;;;;;;4819002;29;20437;-94
2023/04/18 11:17:31;;;;;;;4.45;4.05;;;20.10;45.00;;;;;;4839559;29;20436;-94
2023/04/18 11:20:36;;;;;;;5.63;4.50;;;20.10;46.70;;;;;;4890878;29;20441;-93
2023/04/18 11:23:24;;;;;;;5.83;5.00;;;20.40;44.10;;;;;;4890790;29;20968;-93
2023/04/18 11:25:57;;;;;;;5.23;4.70;;;20.60;43.60;;;;;;4884901;29;21005;-94
2023/04/18 11:29:15;;;;;;;5.93;4.72;;;20.60;44.60;;;;;;4889570;29;20500;-93
2023/04/18 11:32:06;;;;;;;5.10;4.60;;;20.60;45.80;;;;;;4890220;29;20429;-95
2023/04/18 11:34:59;;;;;;;5.10;4.60;;;20.70;43.00;;;;;;4873684;29;20490;-94
2023/04/18 11:37:41;;;;;;;5.37;4.87;;;20.50;43.70;;;;;;4881799;29;20437;-94
2023/04/18 11:40:16;;;;;;;5.15;4.47;;;20.70;45.60;;;;;;4884849;29;20447;-94
2023/04/18 11:42:54;;;;;;;5.15;4.70;;;20.90;47.10;;;;;;4888388;29;20434;-95
2023/04/18 11:49:30;;;;;;;4.63;4.23;;;21.30;44.30;;;;;;4855684;29;20447;-94
2023/04/18 11:56:24;;;;;;;4.95;4.40;;;21.70;42.40;;;;;;4869743;29;20432;-95
2023/04/18 11:59:09;;;;;;;4.35;3.92;;;21.60;42.00;;;;;;4871400;29;20493;-95
2023/04/18 12:01:41;;;;;;;4.80;3.85;;;21.50;41.10;;;;;;4855219;29;20449;-94
2023/04/18 12:04:54;;;;;;;4.30;3.90;;;21.30;42.30;;;;;;4866872;29;20467;-93
2023/04/18 12:08:08;;;;;;;4.05;3.60;;;21.70;44.10;;;;;;4806558;29;20505;-94
2023/04/18 12:10:50;;;;;;;3.40;3.08;;;22.10;41.80;;;;;;4798729;29;20459;-95
2023/04/18 12:14:00;;;;;;;3.70;2.90;;;22.20;40.20;;;;;;4808850;29;20525;-94
2023/04/18 12:16:59;;;;;;;;;;;;;;;;;;;;;
2023/04/18 12:20:35;;;;;;;3.40;3.10;;;21.90;41.30;;;;;;4813595;29;20502;-93
2023/04/18 12:23:36;;;;;;;3.15;2.85;;;21.80;39.90;;;;;;4849527;29;20421;-95
2023/04/18 12:26:13;;;;;;;3.67;2.55;;;21.90;42.50;;;;;;4875645;29;20425;-93
2023/04/18 12:29:16;;;;;;;3.03;2.55;;;22.00;41.70;;;;;;4886381;29;20427;-96
2023/04/18 12:32:00;;;;;;;5.28;2.78;;;22.20;42.30;;;;;;4845792;29;20424;-95
2023/04/18 12:34:32;;;;;;;3.95;2.50;;;22.50;42.50;;;;;;4889091;29;20549;-94
2023/04/18 12:37:02;;;;;;;2.92;2.53;;;22.70;41.30;;;;;;4872111;29;20529;-95
2023/04/18 12:39:34;;;;;;;4.15;2.38;;;23.00;39.60;;;;;;4884986;29;20443;-95
2023/04/18 12:42:05;;;;;;;3.08;2.78;;;23.20;39.30;;;;;;4884300;29;20429;-94
2023/04/18 12:44:34;;;;;;;2.97;2.40;;;23.20;40.10;;;;;;4856160;29;20450;-96
2023/04/18 12:47:07;;;;;;;2.70;2.40;;;23.30;38.70;;;;;;4881697;29;20463;-95
2023/04/18 12:52:35;;;;;;;2.28;2.08;;;23.90;37.60;;;;;;4848614;29;20983;-94
2023/04/18 12:55:01;;;;;;;3.33;2.10;;;24.10;38.30;;;;;;4885696;29;20419;-95
2023/04/18 12:57:27;;;;;;;2.57;1.90;;;23.70;37.60;;;;;;4886390;29;21097;-94
2023/04/18 12:59:55;;;;;;;3.13;1.95;;;23.20;36.30;;;;;;4881626;29;20455;-94
2023/04/18 13:02:35;;;;;;;3.92;2.05;;;23.00;37.10;;;;;;4879642;29;21080;-94
2023/04/18 13:05:21;;;;;;;2.30;2.10;;;23.00;40.00;;;;;;4886257;29;20498;-95
2023/04/18 13:08:16;;;;;;;2.88;2.58;;;23.30;40.20;;;;;;4883391;29;20427;-95
2023/04/18 13:10:42;;;;;;;3.95;3.20;;;23.60;39.90;;;;;;4868916;29;20458;-94
2023/04/18 13:13:11;;;;;;;3.72;2.88;;;24.10;39.60;;;;;;4883875;29;20917;-94
2023/04/18 13:15:48;;;;;;;4.45;2.47;;;24.30;37.70;;;;;;4883446;29;20455;-96
2023/04/18 13:18:23;;;;;;;2.97;2.42;;;24.20;37.50;;;;;;4883847;29;20463;-95
2023/04/18 13:20:49;;;;;;;4.60;3.30;;;24.50;39.40;;;;;;4885318;29;20475;-92
2023/04/18 13:23:14;;;;;;;3.50;3.20;;;23.90;37.90;;;;;;4885235;29;20438;-93
2023/04/18 13:25:40;;;;;;;4.30;3.40;;;23.40;36.70;;;;;;4881563;29;20407;-94
2023/04/18 13:28:08;;;;;;;4.10;3.70;;;22.80;39.30;;;;;;4876652;29;20522;-94
2023/04/18 13:30:34;;;;;;;3.78;3.05;;;22.40;41.80;;;;;;4874324;29;20718;-91
2023/04/18 13:33:05;;;;;;;3.55;2.92;;;22.70;42.00;;;;;;4879073;29;20427;-94
2023/04/18 13:35:31;;;;;;;3.53;3.20;;;23.20;41.90;;;;;;4878055;29;21167;-92
2023/04/18 13:37:57;;;;;;;3.47;3.00;;;22.60;39.70;;;;;;4878788;29;20438;-93
2023/04/18 13:40:23;;;;;;;3.75;3.33;;;22.00;40.30;;;;;;4877828;29;20474;-94
2023/04/18 13:42:50;;;;;;;3.30;2.92;;;21.40;41.00;;;;;;4876898;29;20454;-94
2023/04/18 13:45:19;;;;;;;5.45;3.53;;;21.20;41.80;;;;;;4875958;29;20927;-94
2023/04/18 13:47:45;;;;;;;4.38;3.72;;;21.20;43.20;;;;;;4877252;29;20501;-94